This is the latest recevied weather packets stored in our database for station/object YD2CLX-11. If no packets are shown the sender has not sent any weather packets the latest 10 day(s).
| Time | Temp. | Humidity | Pressure | Rain* | Wind** | Luminosity | Snow |
|---|---|---|---|---|---|---|---|
| 1778432372 | 23.89° C | 81% | 891.3 hPa | - | - | - | - |
| 1778431772 | 23.89° C | 81% | 891.2 hPa | - | - | - | - |
| 1778431172 | 24.44° C | 81% | 891.2 hPa | - | - | - | - |
| 1778430572 | 24.44° C | 81% | 891.2 hPa | - | - | - | - |
| 1778429972 | 23.89° C | 81% | 891.2 hPa | - | - | - | - |
| 1778429372 | 24.44° C | 79% | 891.4 hPa | - | - | - | - |
| 1778428772 | 24.44° C | 79% | 891.4 hPa | - | - | - | - |
| 1778428172 | 24.44° C | 79% | 891.4 hPa | - | - | - | - |
| 1778427572 | 24.44° C | 78% | 891.4 hPa | - | - | - | - |
| 1778426971 | 24.44° C | 78% | 891.3 hPa | - | - | - | - |
| 1778426371 | 24.44° C | 78% | 891.2 hPa | - | - | - | - |
| 1778425771 | 24.44° C | 78% | 891.2 hPa | - | - | - | - |
| 1778425171 | 24.44° C | 78% | 891.1 hPa | - | - | - | - |
| 1778423971 | 24.44° C | 78% | 891.1 hPa | - | - | - | - |
| 1778423371 | 23.89° C | 80% | 891.4 hPa | - | - | - | - |
| 1778404795 | 25° C | 74% | 889.3 hPa | - | - | - | - |
| 1778404195 | 25.56° C | 74% | 889.2 hPa | - | - | - | - |
| 1778403595 | 25° C | 73% | 889.1 hPa | - | - | - | - |
| 1778402995 | 25° C | 73% | 889.1 hPa | - | - | - | - |
| 1778402395 | 25° C | 74% | 888.9 hPa | - | - | - | - |
| 1778401794 | 24.44° C | 75% | 889 hPa | - | - | - | - |
| 1778401194 | 24.44° C | 75% | 888.9 hPa | - | - | - | - |
| 1778400594 | 24.44° C | 76% | 888.8 hPa | - | - | - | - |
| 1778399994 | 24.44° C | 75% | 888.9 hPa | - | - | - | - |
| 1778399394 | 25° C | 74% | 889 hPa | - | - | - | - |
* Rain since midnight (hover to see other rain measurements)
** Current wind speed in m/s (hover to see current wind gust speed)